Terminal Aerodrome Forecast
Issued by NWS St Louis, MO

Home | Current Version | Previous Version | Text Only | Print | Product List | Glossary On
Versions: 1 2 3 4 5 6 7 8 9 10 11 12 13 14 15 16 17 18 19 20 21 22 23 24 25 26 27
000
FTUS43 KLSX 242100 AAA
TAFSTL
TAF AMD
KSTL 242111Z 2421/2524 24011KT P6SM SCT150
     FM250200 22006KT P6SM BKN150
     FM250900 22009KT P6SM -RA OVC035
     FM251100 25013KT 4SM -RA BR OVC012
     FM251700 28012KT P6SM VCSH OVC012=

USA.gov is the U.S. government's official web portal to all federal, state and local government web resources and services.